CEB434 RPLL-RPUH
Flight info
| Callsign | CEB434 |
|---|---|
| Flight time | 0h 30m |
| Altitude | 17000 |
| Route | DINNO2R DINNO W26 SAJ |
| Aircraft | A20N/M-SDE2E3FGHIRWXY/LB1 |
Departure
| Time | 2026-04-20 07:10 |
|---|---|
| Airport | Ninoy Aquino International Airport (RPLL) |
Arrival
| Time | 2026-04-20 07:40 |
|---|---|
| Airport | San Jose Airport (RPUH) |
| Time | Latitude | Longitude | Altitude | Speed | Heading |
|---|---|---|---|---|---|
| 2026-04-20 06:45 | 14.51652 | 121.01714 | 82 ft | 0 kts | 225° |
| 2026-04-20 06:57 | 14.51662 | 121.01725 | 82 ft | 2 kts | 224° |
| 2026-04-20 06:57 | 14.51673 | 121.01736 | 82 ft | 2 kts | 225° |
| 2026-04-20 06:58 | 14.51683 | 121.01746 | 82 ft | 2 kts | 225° |
| 2026-04-20 06:58 | 14.51690 | 121.01753 | 82 ft | 2 kts | 217° |
| 2026-04-20 06:58 | 14.51705 | 121.01758 | 82 ft | 2 kts | 176° |
| 2026-04-20 06:58 | 14.51719 | 121.01753 | 82 ft | 1 kts | 142° |
| 2026-04-20 06:59 | 14.51723 | 121.01749 | 82 ft | 1 kts | 130° |
| 2026-04-20 06:59 | 14.51726 | 121.01746 | 82 ft | 0 kts | 134° |
| 2026-04-20 07:01 | 14.51725 | 121.01746 | 82 ft | 0 kts | 134° |
| 2026-04-20 07:01 | 14.51718 | 121.01755 | 82 ft | 2 kts | 134° |
| 2026-04-20 07:01 | 14.51698 | 121.01773 | 82 ft | 4 kts | 143° |
| 2026-04-20 07:01 | 14.51659 | 121.01786 | 81 ft | 6 kts | 177° |
| 2026-04-20 07:02 | 14.51609 | 121.01762 | 81 ft | 9 kts | 222° |
| 2026-04-20 07:02 | 14.51559 | 121.01711 | 82 ft | 11 kts | 224° |
| 2026-04-20 07:02 | 14.51498 | 121.01650 | 81 ft | 13 kts | 226° |
| 2026-04-20 07:02 | 14.51441 | 121.01599 | 81 ft | 9 kts | 214° |
| 2026-04-20 07:03 | 14.51380 | 121.01570 | 81 ft | 9 kts | 169° |
| 2026-04-20 07:03 | 14.51323 | 121.01622 | 81 ft | 11 kts | 133° |
| 2026-04-20 07:03 | 14.51262 | 121.01688 | 81 ft | 13 kts | 135° |
| 2026-04-20 07:03 | 14.51189 | 121.01759 | 82 ft | 15 kts | 135° |
| 2026-04-20 07:04 | 14.51112 | 121.01839 | 81 ft | 16 kts | 133° |
| 2026-04-20 07:04 | 14.51031 | 121.01920 | 81 ft | 15 kts | 165° |
| 2026-04-20 07:04 | 14.50961 | 121.01845 | 81 ft | 16 kts | 241° |
| 2026-04-20 07:04 | 14.50902 | 121.01739 | 81 ft | 17 kts | 241° |
| 2026-04-20 07:05 | 14.50840 | 121.01627 | 81 ft | 18 kts | 240° |
| 2026-04-20 07:05 | 14.50778 | 121.01515 | 81 ft | 17 kts | 240° |
| 2026-04-20 07:05 | 14.50716 | 121.01404 | 81 ft | 17 kts | 240° |
| 2026-04-20 07:05 | 14.50653 | 121.01292 | 81 ft | 17 kts | 238° |
| 2026-04-20 07:06 | 14.50590 | 121.01181 | 81 ft | 17 kts | 239° |
| 2026-04-20 07:06 | 14.50529 | 121.01071 | 81 ft | 17 kts | 239° |
| 2026-04-20 07:06 | 14.50469 | 121.00960 | 81 ft | 17 kts | 241° |
| 2026-04-20 07:06 | 14.50408 | 121.00851 | 81 ft | 17 kts | 240° |
| 2026-04-20 07:07 | 14.50352 | 121.00749 | 81 ft | 14 kts | 239° |
| 2026-04-20 07:07 | 14.50318 | 121.00691 | 81 ft | 7 kts | 239° |
| 2026-04-20 07:07 | 14.50291 | 121.00638 | 81 ft | 9 kts | 240° |
| 2026-04-20 07:07 | 14.50246 | 121.00559 | 81 ft | 18 kts | 240° |
| 2026-04-20 07:08 | 14.50172 | 121.00427 | 81 ft | 21 kts | 239° |
| 2026-04-20 07:08 | 14.50088 | 121.00374 | 81 ft | 16 kts | 149° |
| 2026-04-20 07:08 | 14.50014 | 121.00431 | 81 ft | 10 kts | 90° |
| 2026-04-20 07:08 | 14.50026 | 121.00452 | 81 ft | 0 kts | 53° |
| 2026-04-20 07:09 | 14.50096 | 121.00574 | 82 ft | 53 kts | 62° |
| 2026-04-20 07:09 | 14.50394 | 121.01112 | 82 ft | 116 kts | 60° |
| 2026-04-20 07:09 | 14.50889 | 121.01997 | 83 ft | 166 kts | 60° |
| 2026-04-20 07:09 | 14.51493 | 121.03062 | 494 ft | 173 kts | 60° |
| 2026-04-20 07:10 | 14.52098 | 121.04123 | 1049 ft | 176 kts | 60° |
| 2026-04-20 07:10 | 14.52712 | 121.05203 | 1596 ft | 174 kts | 62° |
| 2026-04-20 07:10 | 14.53331 | 121.06302 | 1972 ft | 182 kts | 61° |
| 2026-04-20 07:10 | 14.53996 | 121.07484 | 2256 ft | 198 kts | 61° |
| 2026-04-20 07:11 | 14.54718 | 121.08767 | 2547 ft | 214 kts | 61° |
| 2026-04-20 07:11 | 14.55517 | 121.10184 | 2766 ft | 237 kts | 61° |
| 2026-04-20 07:11 | 14.56366 | 121.11691 | 3139 ft | 254 kts | 60° |
| 2026-04-20 07:11 | 14.57271 | 121.13325 | 3633 ft | 267 kts | 65° |
| 2026-04-20 07:12 | 14.57677 | 121.15178 | 4350 ft | 269 kts | 96° |
| 2026-04-20 07:12 | 14.56980 | 121.16936 | 5162 ft | 270 kts | 129° |
| 2026-04-20 07:12 | 14.55510 | 121.18115 | 5883 ft | 276 kts | 155° |
| 2026-04-20 07:12 | 14.53588 | 121.18508 | 6604 ft | 284 kts | 183° |
| 2026-04-20 07:13 | 14.51650 | 121.18202 | 7341 ft | 289 kts | 189° |
| 2026-04-20 07:13 | 14.49653 | 121.17852 | 8075 ft | 294 kts | 188° |
| 2026-04-20 07:13 | 14.47614 | 121.17518 | 8858 ft | 298 kts | 188° |
| 2026-04-20 07:13 | 14.45530 | 121.17191 | 9628 ft | 301 kts | 188° |
| 2026-04-20 07:14 | 14.43475 | 121.16878 | 10364 ft | 305 kts | 187° |
| 2026-04-20 07:14 | 14.41299 | 121.16550 | 10806 ft | 320 kts | 187° |
| 2026-04-20 07:14 | 14.39035 | 121.16215 | 11156 ft | 337 kts | 187° |
| 2026-04-20 07:14 | 14.36648 | 121.15859 | 11468 ft | 355 kts | 187° |
| 2026-04-20 07:15 | 14.34119 | 121.15482 | 11739 ft | 372 kts | 187° |
| 2026-04-20 07:15 | 14.31465 | 121.15086 | 12001 ft | 388 kts | 187° |
| 2026-04-20 07:15 | 14.28743 | 121.14682 | 12251 ft | 402 kts | 187° |
| 2026-04-20 07:15 | 14.25902 | 121.14261 | 12536 ft | 414 kts | 187° |
| 2026-04-20 07:16 | 14.23030 | 121.13834 | 13048 ft | 418 kts | 187° |
| 2026-04-20 07:16 | 14.20119 | 121.13403 | 13604 ft | 420 kts | 187° |
| 2026-04-20 07:16 | 14.17220 | 121.12974 | 14134 ft | 423 kts | 187° |
| 2026-04-20 07:16 | 14.14264 | 121.12539 | 14619 ft | 427 kts | 187° |
| 2026-04-20 07:17 | 14.11338 | 121.12108 | 15106 ft | 429 kts | 187° |
| 2026-04-20 07:17 | 14.08324 | 121.11662 | 15581 ft | 432 kts | 187° |
| 2026-04-20 07:17 | 14.05331 | 121.11221 | 16059 ft | 434 kts | 187° |
| 2026-04-20 07:17 | 14.02329 | 121.10777 | 16513 ft | 436 kts | 188° |
| 2026-04-20 07:18 | 13.99301 | 121.10330 | 16813 ft | 439 kts | 188° |
| 2026-04-20 07:18 | 13.96270 | 121.09882 | 16895 ft | 439 kts | 188° |
| 2026-04-20 07:18 | 13.93222 | 121.09431 | 16881 ft | 439 kts | 187° |
| 2026-04-20 07:18 | 13.90183 | 121.08983 | 16877 ft | 439 kts | 187° |
| 2026-04-20 07:19 | 13.87115 | 121.08533 | 16883 ft | 439 kts | 187° |
| 2026-04-20 07:19 | 13.84097 | 121.08090 | 16877 ft | 439 kts | 188° |
| 2026-04-20 07:19 | 13.81072 | 121.07646 | 16886 ft | 439 kts | 187° |
| 2026-04-20 07:19 | 13.78016 | 121.07198 | 16872 ft | 439 kts | 187° |
| 2026-04-20 07:20 | 13.74985 | 121.06754 | 16865 ft | 438 kts | 188° |
| 2026-04-20 07:20 | 13.71961 | 121.06309 | 16863 ft | 438 kts | 187° |
| 2026-04-20 07:20 | 13.68903 | 121.05859 | 16878 ft | 438 kts | 187° |
| 2026-04-20 07:20 | 13.65901 | 121.05419 | 16860 ft | 438 kts | 187° |
| 2026-04-20 07:21 | 13.62853 | 121.04972 | 16856 ft | 438 kts | 187° |
| 2026-04-20 07:21 | 13.59832 | 121.04528 | 16882 ft | 438 kts | 188° |
| 2026-04-20 07:21 | 13.56793 | 121.04081 | 16880 ft | 438 kts | 187° |
| 2026-04-20 07:21 | 13.53771 | 121.03640 | 16872 ft | 438 kts | 187° |
| 2026-04-20 07:22 | 13.50731 | 121.03315 | 16867 ft | 438 kts | 184° |
| 2026-04-20 07:22 | 13.47633 | 121.03168 | 16901 ft | 437 kts | 180° |
| 2026-04-20 07:22 | 13.44602 | 121.03173 | 16943 ft | 437 kts | 179° |
| 2026-04-20 07:22 | 13.41533 | 121.03206 | 16983 ft | 436 kts | 179° |
| 2026-04-20 07:23 | 13.38505 | 121.03243 | 17009 ft | 436 kts | 179° |
| 2026-04-20 07:23 | 13.35439 | 121.03278 | 17032 ft | 437 kts | 179° |
| 2026-04-20 07:23 | 13.32389 | 121.03313 | 17055 ft | 437 kts | 179° |
| 2026-04-20 07:23 | 13.29323 | 121.03344 | 17079 ft | 437 kts | 179° |
| 2026-04-20 07:24 | 13.26266 | 121.03374 | 17109 ft | 437 kts | 179° |
| 2026-04-20 07:24 | 13.23202 | 121.03406 | 17110 ft | 437 kts | 179° |
| 2026-04-20 07:24 | 13.20155 | 121.03444 | 17097 ft | 437 kts | 179° |
| 2026-04-20 07:24 | 13.17083 | 121.03481 | 17086 ft | 437 kts | 179° |
| 2026-04-20 07:25 | 13.14003 | 121.03519 | 17074 ft | 437 kts | 179° |
| 2026-04-20 07:25 | 13.10978 | 121.03555 | 17063 ft | 437 kts | 178° |
| 2026-04-20 07:25 | 12.95107 | 121.03735 | 17029 ft | 436 kts | 179° |
| 2026-04-20 07:25 | 12.92090 | 121.03769 | 17009 ft | 435 kts | 178° |
| 2026-04-20 07:26 | 12.89092 | 121.03799 | 16898 ft | 425 kts | 179° |
| 2026-04-20 07:26 | 12.86157 | 121.03826 | 16674 ft | 411 kts | 178° |
| 2026-04-20 07:26 | 12.83339 | 121.03849 | 16459 ft | 398 kts | 179° |
| 2026-04-20 07:26 | 12.80574 | 121.03867 | 16257 ft | 385 kts | 179° |
| 2026-04-20 07:27 | 12.77911 | 121.03879 | 16059 ft | 373 kts | 179° |
| 2026-04-20 07:27 | 12.75360 | 121.03889 | 15863 ft | 362 kts | 179° |
| 2026-04-20 07:27 | 12.72871 | 121.03893 | 15667 ft | 351 kts | 179° |
| 2026-04-20 07:27 | 12.70452 | 121.03896 | 15438 ft | 342 kts | 178° |
| 2026-04-20 07:28 | 12.68082 | 121.03892 | 15157 ft | 336 kts | 179° |
| 2026-04-20 07:28 | 12.65757 | 121.03875 | 14868 ft | 330 kts | 181° |
| 2026-04-20 07:28 | 12.63543 | 121.03374 | 14562 ft | 327 kts | 204° |
| 2026-04-20 07:28 | 12.61699 | 121.02029 | 14248 ft | 324 kts | 227° |
| 2026-04-20 07:29 | 12.60541 | 121.00066 | 13915 ft | 321 kts | 252° |
| 2026-04-20 07:29 | 12.60256 | 120.97837 | 13583 ft | 317 kts | 277° |
| 2026-04-20 07:29 | 12.60864 | 120.95726 | 13258 ft | 310 kts | 302° |
| 2026-04-20 07:29 | 12.62273 | 120.94067 | 12923 ft | 302 kts | 327° |
| 2026-04-20 07:30 | 12.64144 | 120.93219 | 12599 ft | 294 kts | 352° |
| 2026-04-20 07:30 | 12.66160 | 120.93279 | 12234 ft | 287 kts | 19° |
| 2026-04-20 07:30 | 12.67891 | 120.94228 | 11856 ft | 282 kts | 45° |
| 2026-04-20 07:30 | 12.69006 | 120.95863 | 11407 ft | 282 kts | 71° |
| 2026-04-20 07:31 | 12.69264 | 120.97843 | 10923 ft | 286 kts | 96° |
| 2026-04-20 07:31 | 12.68605 | 120.99760 | 10428 ft | 292 kts | 122° |
| 2026-04-20 07:31 | 12.67155 | 121.01214 | 9931 ft | 300 kts | 147° |
| 2026-04-20 07:31 | 12.65156 | 121.01920 | 9430 ft | 309 kts | 170° |
| 2026-04-20 07:32 | 12.62984 | 121.02019 | 8932 ft | 313 kts | 177° |
| 2026-04-20 07:32 | 12.60783 | 121.01986 | 8420 ft | 316 kts | 178° |
| 2026-04-20 07:32 | 12.58556 | 121.01935 | 7907 ft | 317 kts | 179° |
| 2026-04-20 07:32 | 12.56360 | 121.01888 | 7405 ft | 319 kts | 179° |
| 2026-04-20 07:33 | 12.54124 | 121.01846 | 6910 ft | 320 kts | 179° |
| 2026-04-20 07:33 | 12.51899 | 121.01807 | 6419 ft | 321 kts | 179° |
| 2026-04-20 07:33 | 12.49656 | 121.01769 | 5996 ft | 318 kts | 179° |
| 2026-04-20 07:33 | 12.42631 | 121.01666 | 4792 ft | 315 kts | 179° |
| 2026-04-20 07:34 | 12.40459 | 121.01642 | 4407 ft | 311 kts | 179° |
| 2026-04-20 07:34 | 12.38270 | 121.01624 | 4029 ft | 308 kts | 179° |
| 2026-04-20 07:34 | 12.36144 | 121.01611 | 3653 ft | 305 kts | 179° |
| 2026-04-20 07:35 | 12.31899 | 121.01577 | 2897 ft | 300 kts | 178° |
| 2026-04-20 07:35 | 12.29872 | 121.01847 | 2516 ft | 292 kts | 157° |
| 2026-04-20 07:35 | 12.28197 | 121.02927 | 2196 ft | 276 kts | 130° |
| 2026-04-20 07:35 | 12.27275 | 121.04557 | 1973 ft | 256 kts | 101° |
| 2026-04-20 07:36 | 12.27211 | 121.06278 | 1970 ft | 231 kts | 82° |
| 2026-04-20 07:36 | 12.27421 | 121.07830 | 1968 ft | 214 kts | 79° |
| 2026-04-20 07:36 | 12.27673 | 121.09291 | 1945 ft | 195 kts | 74° |
| 2026-04-20 07:36 | 12.28292 | 121.10391 | 1975 ft | 172 kts | 38° |
| 2026-04-20 07:37 | 12.29431 | 121.10754 | 1990 ft | 176 kts | 2° |
| 2026-04-20 07:37 | 12.30650 | 121.10665 | 1987 ft | 175 kts | 360° |
| 2026-04-20 07:37 | 12.31853 | 121.10596 | 1772 ft | 168 kts | 0° |
| 2026-04-20 07:37 | 12.32986 | 121.10541 | 1539 ft | 155 kts | 0° |
| 2026-04-20 07:38 | 12.34021 | 121.10448 | 1269 ft | 146 kts | 346° |
| 2026-04-20 07:38 | 12.34852 | 121.09907 | 983 ft | 144 kts | 305° |
| 2026-04-20 07:38 | 12.35118 | 121.08907 | 746 ft | 150 kts | 277° |
| 2026-04-20 07:38 | 12.35292 | 121.07851 | 539 ft | 150 kts | 287° |
| 2026-04-20 07:39 | 12.35570 | 121.06815 | 339 ft | 152 kts | 286° |
| 2026-04-20 07:39 | 12.35860 | 121.05769 | 133 ft | 154 kts | 285° |
| 2026-04-20 07:39 | 12.36137 | 121.04724 | 38 ft | 143 kts | 284° |
| 2026-04-20 07:39 | 12.36326 | 121.04008 | 31 ft | 61 kts | 285° |
| 2026-04-20 07:40 | 12.36372 | 121.03831 | 30 ft | 1 kts | 309° |
| 2026-04-20 07:40 | 12.36377 | 121.03833 | 30 ft | 0 kts | 44° |
| 2026-04-20 07:40 | 12.36369 | 121.03872 | 30 ft | 8 kts | 107° |
| 2026-04-20 07:40 | 12.36269 | 121.04256 | 34 ft | 9 kts | 105° |
| 2026-04-20 07:41 | 12.36206 | 121.04439 | 37 ft | 9 kts | 141° |
| 2026-04-20 07:41 | 12.36149 | 121.04475 | 37 ft | 9 kts | 149° |
| 2026-04-20 07:41 | 12.36098 | 121.04501 | 38 ft | 5 kts | 178° |
| 2026-04-20 07:41 | 12.36073 | 121.04496 | 38 ft | 0 kts | 194° |